Time;durP1;ratioP1;P1;durP2;ratioP2;P2;SDS_P1;SDS_P2;PMS_P1;PMS_P2;Temp;Humidity;BMP_temperature;BMP_pressure;BME280_temperature;BME280_humidity;BME280_pressure;Samples;Min_cycle;Max_cycle;Signal;HPM_P1;HPM_P2
2021/06/01 00:01:14;;;;;;;4.28;1.50;;;15.90;91.40;;;;;;4970533;28;20607;-77
2021/06/01 00:03:39;;;;;;;8.75;2.00;;;15.90;91.50;;;;;;4971360;28;20081;-77
2021/06/01 00:06:05;;;;;;;5.25;1.65;;;15.70;91.60;;;;;;4971254;28;20101;-77
2021/06/01 00:08:31;;;;;;;4.07;1.52;;;15.70;92.00;;;;;;4970534;28;20058;-77
2021/06/01 00:10:56;;;;;;;9.00;2.10;;;15.50;92.20;;;;;;4971322;28;20057;-77
2021/06/01 00:13:22;;;;;;;8.80;2.20;;;15.50;92.30;;;;;;4970543;28;20034;-77
2021/06/01 00:15:48;;;;;;;5.82;2.22;;;15.50;92.20;;;;;;4970756;28;20049;-77
2021/06/01 00:18:14;;;;;;;5.95;2.00;;;15.60;91.90;;;;;;4970115;28;20065;-77
2021/06/01 00:20:39;;;;;;;5.53;1.85;;;15.60;92.10;;;;;;4970628;28;20077;-77
2021/06/01 00:23:05;;;;;;;3.65;1.45;;;15.60;92.00;;;;;;4970186;28;20045;-77
2021/06/01 00:25:30;;;;;;;5.13;1.55;;;15.50;92.40;;;;;;4970856;28;20034;-77
2021/06/01 00:27:56;;;;;;;4.10;1.52;;;15.50;92.10;;;;;;4970112;28;20035;-77
2021/06/01 00:30:22;;;;;;;6.47;1.65;;;15.50;92.30;;;;;;4970813;28;20046;-77
2021/06/01 00:32:48;;;;;;;4.07;1.40;;;15.60;92.20;;;;;;4970388;28;20034;-77
2021/06/01 00:35:13;;;;;;;7.72;2.10;;;15.50;92.40;;;;;;4970788;28;20062;-77
2021/06/01 00:37:39;;;;;;;6.75;1.52;;;15.40;92.60;;;;;;4969996;28;20050;-77
2021/06/01 00:40:06;;;;;;;2.70;1.27;;;15.40;92.60;;;;;;4970293;28;20704;-77
2021/06/01 00:42:31;;;;;;;5.00;1.42;;;15.30;93.00;;;;;;4970142;28;20487;-77
2021/06/01 00:44:57;;;;;;;7.38;1.55;;;15.10;92.90;;;;;;4970221;28;20035;-77
2021/06/01 00:47:22;;;;;;;7.03;1.55;;;15.10;92.80;;;;;;4971860;28;20114;-77
2021/06/01 00:49:48;;;;;;;5.93;1.83;;;15.10;92.70;;;;;;4973598;28;20031;-77
2021/06/01 00:52:14;;;;;;;9.02;1.60;;;15.10;92.60;;;;;;4974480;28;20039;-77
2021/06/01 00:54:40;;;;;;;4.72;1.70;;;15.10;92.70;;;;;;4973982;28;20078;-77
2021/06/01 00:57:07;;;;;;;5.65;1.90;;;15.20;92.80;;;;;;4972781;28;20035;-77
2021/06/01 00:59:33;;;;;;;5.55;1.38;;;15.10;92.80;;;;;;4973754;28;20035;-77
2021/06/01 01:02:00;;;;;;;5.35;1.70;;;15.10;92.80;;;;;;4974050;28;20481;-77
2021/06/01 01:04:27;;;;;;;5.05;1.95;;;15.10;93.00;;;;;;4973209;28;20046;-77
2021/06/01 01:07:14;;;;;;;3.42;1.60;;;15.00;93.00;;;;;;4973927;28;20053;-76
2021/06/01 01:09:42;;;;;;;5.80;1.90;;;15.00;93.10;;;;;;4973585;28;20097;-77
2021/06/01 01:12:17;;;;;;;6.43;1.55;;;15.00;93.10;;;;;;4973961;28;20039;-77
2021/06/01 01:14:49;;;;;;;4.82;1.70;;;15.00;93.20;;;;;;4981533;28;20026;-76
2021/06/01 01:17:21;;;;;;;3.83;1.10;;;15.00;93.40;;;;;;4979609;28;20031;-77
2021/06/01 01:19:53;;;;;;;5.30;1.40;;;15.00;93.50;;;;;;4980447;28;20042;-76
2021/06/01 01:22:21;;;;;;;4.13;1.52;;;14.80;93.50;;;;;;4993301;28;20038;-77
2021/06/01 01:25:07;;;;;;;6.53;1.92;;;14.80;93.40;;;;;;4986910;28;20038;-76
2021/06/01 01:28:01;;;;;;;10.45;1.67;;;14.80;93.70;;;;;;4973964;28;20046;-76
2021/06/01 01:30:33;;;;;;;6.22;1.40;;;14.70;93.70;;;;;;4973326;28;20035;-76
2021/06/01 01:32:59;;;;;;;3.22;1.60;;;14.80;93.70;;;;;;4973697;28;20138;-76
2021/06/01 01:35:34;;;;;;;3.75;1.20;;;14.80;93.60;;;;;;4972278;28;20051;-76
2021/06/01 01:38:02;;;;;;;6.78;2.00;;;14.80;93.70;;;;;;4973427;28;20088;-76
2021/06/01 01:40:30;;;;;;;4.45;1.50;;;14.80;93.90;;;;;;4972809;28;20042;-76
2021/06/01 01:43:03;;;;;;;3.58;1.30;;;14.70;94.10;;;;;;4973283;28;20062;-76
2021/06/01 01:45:31;;;;;;;5.20;1.65;;;14.60;94.20;;;;;;4972873;28;20027;-76
2021/06/01 01:51:12;;;;;;;5.68;1.30;;;14.60;94.50;;;;;;4965093;28;20086;-76
2021/06/01 01:53:59;;;;;;;4.15;1.50;;;14.50;94.50;;;;;;4973508;28;20043;-76
2021/06/01 01:56:36;;;;;;;6.45;1.77;;;14.50;94.70;;;;;;4983689;28;20117;-76
2021/06/01 01:59:04;;;;;;;3.05;1.35;;;14.50;94.50;;;;;;4970994;28;20035;-76
2021/06/01 02:01:32;;;;;;;5.40;1.10;;;14.50;94.40;;;;;;4967151;28;20027;-76
2021/06/01 02:03:58;;;;;;;4.57;1.23;;;14.50;94.30;;;;;;4967224;28;20562;-76
2021/06/01 02:06:24;;;;;;;3.67;1.45;;;14.50;94.30;;;;;;4972991;28;20027;-76
2021/06/01 02:08:50;;;;;;;3.75;1.70;;;14.40;94.70;;;;;;4972968;28;20037;-76
2021/06/01 02:11:16;;;;;;;5.07;1.48;;;14.40;94.70;;;;;;4972618;28;20034;-76
2021/06/01 02:13:54;;;;;;;5.47;1.70;;;14.40;94.90;;;;;;4973279;28;20038;-76
2021/06/01 02:16:21;;;;;;;5.53;1.50;;;14.50;94.90;;;;;;4972180;28;20117;-76
2021/06/01 02:18:47;;;;;;;6.82;1.85;;;14.40;95.30;;;;;;4973418;28;20030;-76
2021/06/01 02:21:23;;;;;;;5.00;1.70;;;14.40;94.80;;;;;;4970947;28;20045;-76
2021/06/01 02:24:02;;;;;;;5.47;1.52;;;14.40;94.70;;;;;;4972671;28;20034;-76
2021/06/01 02:26:41;;;;;;;4.63;1.50;;;14.40;94.90;;;;;;4972061;28;20477;-76
2021/06/01 02:29:14;;;;;;;5.65;1.58;;;14.40;95.10;;;;;;4973419;28;20034;-76
2021/06/01 02:31:45;;;;;;;7.80;1.73;;;14.40;95.30;;;;;;4972822;28;20027;-76
2021/06/01 02:34:14;;;;;;;5.45;1.60;;;14.40;95.60;;;;;;4972483;28;20038;-76
2021/06/01 02:36:41;;;;;;;5.40;1.50;;;14.40;95.60;;;;;;4972271;28;20058;-76
2021/06/01 02:39:08;;;;;;;7.45;1.73;;;14.30;95.60;;;;;;4972527;28;20405;-76
2021/06/01 02:41:34;;;;;;;5.50;1.95;;;14.30;95.80;;;;;;4972518;28;20035;-76
2021/06/01 02:44:01;;;;;;;3.97;1.50;;;14.20;95.80;;;;;;4971834;28;20695;-76
2021/06/01 02:46:27;;;;;;;6.30;1.85;;;14.20;96.00;;;;;;4964966;28;20038;-75
2021/06/01 02:48:54;;;;;;;4.00;1.70;;;14.10;96.00;;;;;;4967407;28;20065;-76
2021/06/01 02:51:20;;;;;;;9.60;1.27;;;14.10;95.90;;;;;;4972123;28;20039;-76
2021/06/01 02:53:53;;;;;;;4.13;1.67;;;14.10;95.60;;;;;;4971468;28;20046;-76
2021/06/01 02:56:20;;;;;;;3.03;1.35;;;14.20;95.70;;;;;;4971584;28;20481;-76
2021/06/01 02:58:48;;;;;;;4.18;1.58;;;14.10;95.80;;;;;;4963260;28;20093;-75
2021/06/01 03:01:18;;;;;;;6.55;1.50;;;14.10;95.90;;;;;;4971639;28;20049;-76
2021/06/01 03:03:49;;;;;;;4.50;1.42;;;13.90;96.20;;;;;;4971569;28;20072;-76
2021/06/01 03:06:25;;;;;;;7.13;1.60;;;13.90;96.60;;;;;;4971623;28;20153;-76
2021/06/01 03:08:52;;;;;;;3.72;1.70;;;13.80;96.60;;;;;;4971233;28;20035;-75
2021/06/01 03:11:20;;;;;;;5.30;1.70;;;13.70;96.80;;;;;;4971088;28;20676;-76
2021/06/01 03:13:47;;;;;;;3.97;1.60;;;13.70;96.70;;;;;;4970925;28;20039;-76
2021/06/01 03:16:13;;;;;;;4.95;1.50;;;13.80;96.70;;;;;;4971624;28;20038;-75
2021/06/01 03:18:40;;;;;;;8.18;1.65;;;13.90;97.20;;;;;;4971464;28;20904;-76
2021/06/01 03:21:06;;;;;;;3.97;1.38;;;13.90;96.70;;;;;;4972807;28;20027;-75
2021/06/01 03:23:31;;;;;;;5.82;1.90;;;13.80;96.70;;;;;;4964867;28;20035;-76
2021/06/01 03:25:58;;;;;;;4.82;1.55;;;13.80;96.80;;;;;;4970967;28;20023;-75
2021/06/01 03:28:23;;;;;;;5.82;2.13;;;13.70;97.10;;;;;;4970995;28;20035;-76
2021/06/01 03:30:50;;;;;;;4.50;1.70;;;13.70;97.20;;;;;;4970677;28;20054;-76
2021/06/01 03:33:17;;;;;;;5.53;1.60;;;13.70;97.20;;;;;;4970920;28;20738;-75
2021/06/01 03:35:43;;;;;;;4.03;1.80;;;13.70;97.40;;;;;;4970418;28;20061;-76
2021/06/01 03:38:10;;;;;;;5.28;1.70;;;13.70;97.70;;;;;;4971100;28;20054;-76
2021/06/01 03:40:36;;;;;;;7.13;2.05;;;13.70;97.60;;;;;;4970266;28;20045;-76
2021/06/01 03:43:02;;;;;;;4.75;1.92;;;13.60;97.80;;;;;;4971028;28;20114;-76
2021/06/01 03:45:28;;;;;;;3.65;1.40;;;13.50;98.00;;;;;;4971047;28;20106;-75
2021/06/01 03:47:54;;;;;;;4.18;2.17;;;13.40;98.20;;;;;;4970311;28;20034;-75
2021/06/01 03:50:20;;;;;;;5.82;1.70;;;13.50;98.00;;;;;;4970637;28;20110;-76
2021/06/01 03:52:46;;;;;;;11.27;2.47;;;13.50;98.00;;;;;;4970523;28;20055;-76
2021/06/01 03:55:13;;;;;;;6.80;2.10;;;13.60;98.20;;;;;;4970495;28;20038;-76
2021/06/01 03:57:39;;;;;;;5.53;2.08;;;13.60;98.40;;;;;;4957627;28;20035;-76
2021/06/01 04:00:08;;;;;;;8.27;2.25;;;13.50;98.40;;;;;;4951745;29;20599;-75
2021/06/01 04:02:34;;;;;;;6.93;2.47;;;13.50;98.50;;;;;;4961862;28;20042;-76
2021/06/01 04:05:00;;;;;;;6.93;2.63;;;13.60;98.70;;;;;;4970793;28;20027;-76
2021/06/01 04:07:26;;;;;;;10.50;3.00;;;13.60;98.70;;;;;;4969867;28;20113;-76
2021/06/01 04:09:51;;;;;;;7.95;3.17;;;13.50;98.80;;;;;;4969991;28;20672;-75
2021/06/01 04:12:17;;;;;;;9.13;2.55;;;13.40;98.90;;;;;;4970628;28;20042;-75
2021/06/01 04:14:43;;;;;;;7.32;2.35;;;13.50;98.80;;;;;;4970530;28;20039;-75
2021/06/01 04:17:08;;;;;;;5.95;2.35;;;13.40;99.00;;;;;;4970499;28;20031;-76
2021/06/01 04:19:34;;;;;;;9.60;2.80;;;13.30;99.00;;;;;;4970072;28;20038;-75
2021/06/01 04:22:01;;;;;;;4.70;1.95;;;13.30;99.10;;;;;;4969482;28;20504;-75
2021/06/01 04:24:27;;;;;;;11.35;2.92;;;13.30;99.10;;;;;;4969791;28;20027;-76
2021/06/01 04:26:56;;;;;;;9.52;2.30;;;13.30;99.10;;;;;;4967896;28;20035;-76
2021/06/01 04:29:22;;;;;;;9.55;2.78;;;13.30;99.10;;;;;;4960911;28;20474;-75
2021/06/01 04:31:47;;;;;;;7.70;2.38;;;13.30;99.30;;;;;;4960639;28;20059;-75
2021/06/01 04:34:13;;;;;;;9.77;2.97;;;13.20;99.70;;;;;;4959021;28;20043;-76
2021/06/01 04:36:39;;;;;;;8.38;2.40;;;13.20;99.90;;;;;;4968670;28;20035;-75
2021/06/01 04:39:05;;;;;;;8.48;3.03;;;13.20;99.90;;;;;;4970098;28;20039;-75
2021/06/01 04:41:31;;;;;;;9.25;3.78;;;13.20;99.80;;;;;;4969733;28;20050;-75
2021/06/01 04:43:56;;;;;;;7.80;3.03;;;13.20;99.90;;;;;;4970539;28;20034;-75
2021/06/01 04:46:22;;;;;;;8.15;2.78;;;13.30;99.90;;;;;;4973302;28;20035;-75
2021/06/01 04:48:47;;;;;;;9.85;2.88;;;13.30;99.90;;;;;;4986690;28;20640;-75
2021/06/01 04:51:16;;;;;;;9.93;2.80;;;13.50;99.90;;;;;;4984215;28;20061;-75
2021/06/01 04:53:47;;;;;;;12.15;3.28;;;13.80;99.80;;;;;;4970598;28;20035;-75
2021/06/01 04:56:13;;;;;;;5.57;2.10;;;14.20;99.40;;;;;;4973499;28;20045;-75
2021/06/01 04:58:39;;;;;;;8.10;2.70;;;14.60;98.80;;;;;;4970798;28;20030;-76
2021/06/01 05:01:04;;;;;;;13.52;2.80;;;14.80;98.20;;;;;;4967468;28;20527;-76
2021/06/01 05:03:30;;;;;;;9.25;2.60;;;15.30;97.70;;;;;;4956346;28;20125;-76
2021/06/01 05:05:56;;;;;;;9.90;3.10;;;15.60;97.00;;;;;;4967795;28;20141;-76
2021/06/01 05:08:21;;;;;;;8.15;2.47;;;16.00;96.20;;;;;;4963193;28;20465;-76
2021/06/01 05:10:47;;;;;;;9.05;2.85;;;16.10;95.70;;;;;;4968385;28;20046;-76
2021/06/01 05:13:13;;;;;;;9.77;3.13;;;16.40;95.10;;;;;;4968347;28;20059;-75
2021/06/01 05:15:38;;;;;;;9.98;3.22;;;16.40;94.60;;;;;;4970494;28;20468;-76
2021/06/01 05:18:04;;;;;;;11.68;3.13;;;16.60;94.40;;;;;;4972256;28;20045;-76
2021/06/01 05:20:30;;;;;;;7.25;2.72;;;16.90;94.30;;;;;;4965930;28;20061;-76
2021/06/01 05:22:55;;;;;;;10.25;3.47;;;17.20;94.00;;;;;;4971532;28;20031;-76
2021/06/01 05:25:21;;;;;;;9.30;2.85;;;17.50;93.60;;;;;;4980379;28;20030;-76
2021/06/01 05:27:47;;;;;;;10.32;3.50;;;17.50;93.20;;;;;;4971475;28;20158;-76
2021/06/01 05:30:20;;;;;;;11.50;2.72;;;17.40;93.10;;;;;;4982810;28;20035;-76
2021/06/01 05:35:28;;;;;;;4.72;1.73;;;17.70;93.00;;;;;;4961784;28;20051;-76
2021/06/01 05:37:54;;;;;;;6.97;2.13;;;17.60;91.80;;;;;;4962017;28;20459;-76
2021/06/01 05:40:20;;;;;;;8.88;3.30;;;17.90;92.00;;;;;;4978027;28;20042;-76
2021/06/01 05:42:46;;;;;;;7.97;2.95;;;17.90;91.70;;;;;;4972977;28;20043;-76
2021/06/01 05:45:12;;;;;;;8.00;3.25;;;18.20;92.30;;;;;;4973247;28;20084;-76
2021/06/01 05:47:38;;;;;;;11.82;2.67;;;18.30;91.80;;;;;;4958904;28;20030;-76
2021/06/01 05:50:05;;;;;;;8.82;2.75;;;18.40;91.30;;;;;;4967744;28;20034;-76
2021/06/01 05:52:35;;;;;;;6.82;2.80;;;18.70;90.80;;;;;;4959900;28;20106;-76
2021/06/01 05:55:01;;;;;;;8.05;2.65;;;18.70;90.60;;;;;;4968768;28;20038;-76
2021/06/01 05:57:26;;;;;;;10.20;2.80;;;18.90;90.70;;;;;;4969904;28;20031;-76
2021/06/01 05:59:52;;;;;;;10.50;2.63;;;19.00;90.30;;;;;;4968639;28;20043;-76
2021/06/01 06:02:18;;;;;;;8.32;1.90;;;18.90;90.20;;;;;;4973752;28;20031;-76
2021/06/01 06:04:43;;;;;;;11.20;2.33;;;18.80;90.20;;;;;;4974259;28;20038;-76
2021/06/01 06:07:09;;;;;;;4.20;1.77;;;19.10;90.20;;;;;;4964534;28;20043;-76
2021/06/01 06:09:34;;;;;;;8.07;2.00;;;19.10;89.70;;;;;;4957341;28;20057;-76
2021/06/01 06:12:00;;;;;;;4.63;1.73;;;19.20;89.00;;;;;;4965100;28;20034;-76
2021/06/01 06:14:26;;;;;;;4.78;1.83;;;19.40;89.50;;;;;;4963977;28;20062;-76
2021/06/01 06:16:55;;;;;;;8.90;1.85;;;19.50;89.40;;;;;;4961190;28;20037;-77
2021/06/01 06:19:21;;;;;;;7.72;2.17;;;19.40;88.90;;;;;;4966578;28;20035;-76
2021/06/01 06:21:47;;;;;;;8.27;3.67;;;19.30;88.80;;;;;;4967519;28;20049;-76
2021/06/01 06:24:12;;;;;;;7.82;3.30;;;19.50;89.50;;;;;;4965675;28;20990;-76
2021/06/01 06:26:38;;;;;;;6.78;2.50;;;19.70;88.90;;;;;;4972240;28;20037;-76
2021/06/01 06:29:04;;;;;;;8.52;2.88;;;20.10;87.20;;;;;;4964814;28;20027;-76
2021/06/01 06:31:29;;;;;;;3.30;1.30;;;20.20;86.70;;;;;;4955210;28;20035;-76
2021/06/01 06:33:56;;;;;;;4.50;1.23;;;20.40;84.10;;;;;;4963769;28;20057;-76
2021/06/01 06:36:22;;;;;;;3.67;1.20;;;20.20;85.70;;;;;;4966567;28;20432;-76
2021/06/01 06:38:47;;;;;;;8.70;1.70;;;19.40;84.90;;;;;;4963540;28;20030;-76
2021/06/01 06:41:16;;;;;;;3.20;1.05;;;19.10;87.00;;;;;;4966512;28;20744;-76
2021/06/01 06:43:51;;;;;;;4.55;1.20;;;19.10;86.40;;;;;;4958896;28;20042;-76
2021/06/01 06:46:25;;;;;;;3.45;1.20;;;19.40;85.90;;;;;;4965480;28;20109;-76
2021/06/01 06:48:52;;;;;;;5.45;1.17;;;19.50;84.30;;;;;;4959361;28;20089;-76
2021/06/01 06:51:18;;;;;;;4.07;1.40;;;19.30;84.20;;;;;;4962843;28;20032;-76
2021/06/01 06:53:53;;;;;;;4.22;1.15;;;19.40;84.70;;;;;;4964226;28;20046;-76
2021/06/01 06:56:20;;;;;;;9.43;1.52;;;19.70;84.80;;;;;;4962212;28;20042;-76
2021/06/01 06:58:47;;;;;;;2.65;1.30;;;19.80;85.40;;;;;;4959501;28;20038;-76
2021/06/01 07:01:13;;;;;;;6.50;1.48;;;20.20;85.50;;;;;;4960477;28;20030;-76
2021/06/01 07:03:39;;;;;;;4.20;1.60;;;20.40;84.30;;;;;;4964057;28;20030;-76
2021/06/01 07:06:05;;;;;;;6.93;2.20;;;20.70;84.40;;;;;;4965670;28;20389;-76
2021/06/01 07:08:32;;;;;;;6.60;2.47;;;21.10;83.80;;;;;;4965461;28;20073;-76
2021/06/01 07:10:58;;;;;;;4.82;1.95;;;21.20;83.10;;;;;;4972725;28;20041;-76
2021/06/01 07:13:42;;;;;;;5.30;1.75;;;20.50;83.40;;;;;;4976835;28;20030;-76
2021/06/01 07:16:08;;;;;;;6.82;2.40;;;20.90;84.60;;;;;;4970954;28;20054;-76
2021/06/01 07:18:38;;;;;;;7.18;1.77;;;20.90;85.00;;;;;;4978509;28;20038;-76
2021/06/01 07:21:04;;;;;;;5.40;1.83;;;20.80;82.30;;;;;;4972032;28;20395;-76
2021/06/01 07:23:30;;;;;;;5.93;1.60;;;21.10;83.60;;;;;;4970192;28;20093;-76
2021/06/01 07:25:56;;;;;;;5.57;1.83;;;21.60;81.10;;;;;;4968250;28;20038;-76
2021/06/01 07:28:22;;;;;;;5.03;1.50;;;21.30;81.40;;;;;;4966713;28;20807;-76
2021/06/01 07:30:48;;;;;;;5.38;1.40;;;21.20;80.60;;;;;;4966834;28;20042;-76
2021/06/01 07:33:13;;;;;;;4.28;1.55;;;21.30;80.40;;;;;;4971475;28;20034;-76
2021/06/01 07:35:40;;;;;;;9.43;1.63;;;21.10;79.70;;;;;;4969418;28;20106;-76
2021/06/01 07:38:06;;;;;;;4.43;1.23;;;20.80;81.10;;;;;;4968890;28;20034;-76
2021/06/01 07:40:32;;;;;;;4.60;1.80;;;21.00;80.90;;;;;;4972050;28;20046;-76
2021/06/01 07:42:59;;;;;;;4.22;1.30;;;21.40;79.70;;;;;;4972430;28;20460;-76
2021/06/01 07:45:26;;;;;;;7.15;1.75;;;21.40;80.10;;;;;;4967686;28;20113;-76
2021/06/01 07:47:52;;;;;;;7.70;1.88;;;21.20;80.70;;;;;;4964241;28;20031;-76
2021/06/01 07:50:18;;;;;;;4.63;1.50;;;21.00;80.50;;;;;;4967787;28;20026;-76
2021/06/01 07:52:43;;;;;;;7.95;1.65;;;20.90;80.50;;;;;;4967505;28;20081;-76
2021/06/01 07:55:09;;;;;;;4.65;1.73;;;21.30;80.10;;;;;;4970535;28;20035;-76
2021/06/01 07:57:36;;;;;;;8.68;2.15;;;21.90;80.20;;;;;;4965007;28;20035;-76
2021/06/01 08:00:04;;;;;;;11.73;2.20;;;21.80;80.10;;;;;;4974639;28;20043;-76
2021/06/01 08:02:30;;;;;;;9.95;2.08;;;21.80;78.60;;;;;;4971627;28;20030;-76
2021/06/01 08:04:55;;;;;;;10.50;1.98;;;21.50;80.30;;;;;;4970836;28;20031;-76
2021/06/01 08:07:21;;;;;;;12.23;3.05;;;21.40;80.70;;;;;;4970392;28;20380;-76
2021/06/01 08:09:48;;;;;;;8.88;2.60;;;21.90;82.10;;;;;;4969640;28;20045;-76
2021/06/01 08:12:14;;;;;;;7.43;2.45;;;21.20;82.80;;;;;;4973461;28;20027;-76
2021/06/01 08:14:39;;;;;;;9.43;2.33;;;21.60;83.00;;;;;;4974174;28;20030;-76
2021/06/01 08:17:05;;;;;;;7.85;2.10;;;22.20;80.60;;;;;;4966348;28;20034;-76
2021/06/01 08:19:34;;;;;;;10.85;2.40;;;21.80;80.40;;;;;;4963873;28;20045;-76
2021/06/01 08:22:03;;;;;;;9.13;2.20;;;21.60;80.70;;;;;;4960342;28;20061;-76
2021/06/01 08:24:29;;;;;;;7.65;2.03;;;21.40;80.90;;;;;;4959378;28;20031;-76
2021/06/01 08:26:54;;;;;;;8.13;2.00;;;21.30;80.30;;;;;;4970073;28;20112;-76
2021/06/01 08:29:20;;;;;;;8.27;1.90;;;22.30;81.80;;;;;;4964056;28;20035;-76
2021/06/01 08:31:46;;;;;;;6.78;1.70;;;21.70;80.00;;;;;;4964243;28;20039;-76
2021/06/01 08:34:12;;;;;;;11.77;2.72;;;21.10;80.40;;;;;;4960451;28;20051;-76
2021/06/01 08:36:39;;;;;;;6.97;1.70;;;21.40;79.90;;;;;;4967373;28;20039;-76
2021/06/01 08:39:06;;;;;;;10.43;2.35;;;21.80;79.50;;;;;;4968601;28;20495;-76
2021/06/01 08:41:33;;;;;;;5.45;1.88;;;22.00;79.60;;;;;;4969206;28;20047;-76
2021/06/01 08:44:03;;;;;;;4.57;1.65;;;21.90;78.70;;;;;;4970938;28;20037;-76
2021/06/01 08:46:30;;;;;;;6.10;1.98;;;22.00;78.30;;;;;;4969474;28;20042;-76
2021/06/01 08:48:56;;;;;;;8.32;1.70;;;21.90;79.10;;;;;;4967491;28;20039;-76
2021/06/01 08:51:23;;;;;;;7.72;1.90;;;22.10;78.80;;;;;;4963479;28;20038;-76
2021/06/01 08:53:55;;;;;;;6.40;1.83;;;22.30;79.90;;;;;;4961406;28;20070;-77
2021/06/01 08:56:20;;;;;;;9.20;1.90;;;21.90;80.40;;;;;;4958613;28;20039;-76
2021/06/01 08:58:49;;;;;;;6.22;1.77;;;22.50;79.00;;;;;;4962903;28;20045;-76
2021/06/01 09:01:16;;;;;;;7.68;1.63;;;22.80;77.80;;;;;;4961978;28;20432;-76
2021/06/01 09:03:45;;;;;;;4.30;1.42;;;22.90;76.60;;;;;;4962556;28;20027;-76
2021/06/01 09:06:22;;;;;;;6.75;1.73;;;23.40;76.20;;;;;;4963726;28;20026;-76
2021/06/01 09:22:37;;;;;;;9.63;2.15;;;24.80;74.20;;;;;;4964711;28;20529;-76
2021/06/01 09:25:12;;;;;;;4.78;1.55;;;24.00;74.90;;;;;;4969223;28;20045;-76
2021/06/01 09:27:53;;;;;;;4.90;1.73;;;23.60;75.10;;;;;;4959897;28;20038;-76
2021/06/01 09:30:42;;;;;;;8.02;2.05;;;23.60;74.90;;;;;;4985227;28;20031;-76
2021/06/01 09:33:15;;;;;;;9.98;2.20;;;24.00;77.30;;;;;;4959761;28;20142;-76
2021/06/01 09:35:40;;;;;;;8.43;2.53;;;24.60;77.00;;;;;;4971322;28;20062;-76
2021/06/01 09:38:07;;;;;;;7.68;1.88;;;24.60;74.90;;;;;;4972958;28;20031;-76
2021/06/01 09:40:32;;;;;;;5.22;2.05;;;24.50;76.20;;;;;;4972170;28;20052;-77
2021/06/01 09:42:58;;;;;;;9.73;2.17;;;24.70;75.00;;;;;;4962842;28;20057;-76
2021/06/01 09:45:25;;;;;;;5.80;2.60;;;24.00;75.00;;;;;;4973047;28;20037;-76
2021/06/01 09:47:54;;;;;;;5.70;1.83;;;23.70;76.20;;;;;;4965595;28;20026;-76
2021/06/01 09:52:58;;;;;;;5.70;1.70;;;23.70;75.50;;;;;;4960934;28;20396;-76
2021/06/01 09:57:59;;;;;;;6.30;1.70;;;24.00;78.20;;;;;;4972659;28;20039;-76
2021/06/01 10:00:29;;;;;;;9.18;2.20;;;24.10;78.10;;;;;;4964283;28;20039;-76
2021/06/01 10:02:57;;;;;;;7.20;2.25;;;24.60;77.00;;;;;;4966036;28;20054;-76
2021/06/01 10:05:30;;;;;;;4.47;1.65;;;23.50;77.10;;;;;;4953475;28;20114;-76
2021/06/01 10:07:58;;;;;;;10.98;2.45;;;24.20;77.60;;;;;;4971401;28;20114;-76
2021/06/01 10:10:26;;;;;;;9.00;2.20;;;24.70;77.20;;;;;;4982732;28;20088;-77
2021/06/01 10:12:59;;;;;;;8.90;1.98;;;25.10;76.30;;;;;;4971083;28;20141;-76
2021/06/01 10:15:29;;;;;;;8.40;1.85;;;24.40;76.70;;;;;;4963206;28;20428;-76
2021/06/01 10:17:55;;;;;;;8.43;2.08;;;25.00;75.20;;;;;;4967190;28;20031;-76
2021/06/01 10:20:25;;;;;;;10.35;2.10;;;24.50;74.60;;;;;;4965048;28;20039;-76
2021/06/01 10:22:51;;;;;;;12.73;1.80;;;24.50;74.40;;;;;;4961346;28;20162;-76
2021/06/01 10:25:18;;;;;;;4.28;1.70;;;24.10;76.60;;;;;;4967251;28;20422;-76
2021/06/01 10:27:45;;;;;;;7.80;1.80;;;23.70;77.30;;;;;;4969562;28;20101;-76
2021/06/01 10:30:13;;;;;;;6.95;2.05;;;24.10;77.00;;;;;;4965277;28;20066;-76
2021/06/01 10:32:43;;;;;;;6.50;2.00;;;24.50;75.40;;;;;;4971676;28;20035;-76
2021/06/01 10:35:13;;;;;;;7.32;1.90;;;24.20;76.20;;;;;;4971291;28;20194;-76
2021/06/01 10:51:55;;;;;;;4.65;1.70;;;24.60;75.30;;;;;;4938808;28;20067;-76
2021/06/01 10:54:43;;;;;;;4.68;1.67;;;24.80;75.10;;;;;;4954319;28;20046;-76
2021/06/01 10:57:12;;;;;;;7.53;2.15;;;24.70;76.10;;;;;;4961475;28;20042;-76
2021/06/01 10:59:48;;;;;;;6.93;1.95;;;24.50;75.20;;;;;;4970033;28;20522;-76
2021/06/01 11:02:15;;;;;;;4.90;1.38;;;24.50;74.80;;;;;;4964554;28;20114;-76
2021/06/01 11:05:08;;;;;;;5.75;2.05;;;24.70;74.90;;;;;;4962092;28;20150;-76
2021/06/01 11:07:52;;;;;;;9.70;1.92;;;24.60;74.80;;;;;;4970911;28;20118;-76
2021/06/01 11:10:37;;;;;;;8.43;1.50;;;24.50;74.20;;;;;;4971173;28;20105;-76
2021/06/01 11:13:07;;;;;;;16.88;2.38;;;24.30;75.60;;;;;;4971283;28;20034;-76
2021/06/01 11:15:35;;;;;;;12.13;2.30;;;24.50;76.20;;;;;;4971573;28;20041;-76
2021/06/01 11:18:23;;;;;;;5.20;1.73;;;24.70;75.30;;;;;;4967264;28;20039;-76
2021/06/01 11:21:16;;;;;;;4.95;1.55;;;24.60;75.20;;;;;;4963212;28;20054;-76
2021/06/01 11:24:15;;;;;;;4.45;1.42;;;24.10;74.60;;;;;;4952370;28;20030;-76
2021/06/01 11:35:22;;;;;;;7.22;1.67;;;24.20;74.00;;;;;;4964199;28;20055;-76
2021/06/01 11:37:58;;;;;;;5.07;1.67;;;24.30;74.80;;;;;;4968411;28;20038;-75
2021/06/01 11:43:18;;;;;;;4.00;1.20;;;24.30;75.10;;;;;;4968931;28;20043;-76
2021/06/01 11:46:15;;;;;;;6.97;1.50;;;24.30;74.00;;;;;;4957395;28;20031;-76
2021/06/01 11:51:15;;;;;;;7.95;1.33;;;25.00;74.10;;;;;;4970248;28;20045;-76
2021/06/01 11:53:51;;;;;;;6.00;1.60;;;25.00;72.80;;;;;;4965916;28;20130;-76
2021/06/01 11:57:00;;;;;;;5.50;1.60;;;25.20;73.60;;;;;;4965421;28;20469;-76
2021/06/01 12:13:46;;;;;;;7.57;1.48;;;25.60;71.10;;;;;;4967208;28;20388;-76
2021/06/01 12:19:03;;;;;;;8.13;1.35;;;25.80;70.50;;;;;;4968401;28;20710;-76
2021/06/01 12:21:34;;;;;;;5.95;0.80;;;25.60;69.10;;;;;;4970354;28;20035;-76
2021/06/01 12:24:18;;;;;;;3.10;1.20;;;25.90;68.50;;;;;;4967743;28;20039;-76
2021/06/01 12:27:19;;;;;;;4.68;1.20;;;26.00;68.40;;;;;;4967958;28;20035;-76
2021/06/01 12:32:31;;;;;;;3.80;1.30;;;26.30;68.30;;;;;;4967082;28;20045;-76
2021/06/01 12:43:50;;;;;;;4.00;1.00;;;26.30;69.50;;;;;;4970631;28;20082;-76
2021/06/01 13:12:12;;;;;;;5.75;1.02;;;25.80;67.70;;;;;;4958178;28;20034;-76
2021/06/01 13:51:33;;;;;;;5.80;1.20;;;26.80;67.40;;;;;;4969991;28;20042;-76
2021/06/01 13:56:23;;;;;;;6.47;1.58;;;26.80;66.90;;;;;;4973147;28;20472;-76
2021/06/01 14:01:35;;;;;;;4.13;1.25;;;27.00;66.70;;;;;;4968135;28;20027;-76
2021/06/01 14:09:52;;;;;;;4.72;1.20;;;26.90;67.30;;;;;;4954303;28;20045;-76
2021/06/01 14:31:40;;;;;;;6.63;1.45;;;26.90;66.20;;;;;;4968594;28;20066;-76
2021/06/01 14:37:09;;;;;;;4.18;1.08;;;27.00;65.70;;;;;;4964278;28;20141;-76
2021/06/01 14:40:19;;;;;;;7.18;1.10;;;27.00;66.20;;;;;;4971031;28;20045;-76
2021/06/01 15:28:47;;;;;;;2.65;1.00;;;26.90;67.10;;;;;;4961469;28;20097;-76
2021/06/01 15:47:58;;;;;;;5.07;1.25;;;26.90;66.80;;;;;;4971374;28;20086;-76
2021/06/01 15:53:35;;;;;;;3.08;1.10;;;26.70;65.40;;;;;;4951655;28;20412;-76
2021/06/01 16:12:48;;;;;;;6.25;1.50;;;26.70;65.90;;;;;;4957813;28;20038;-76
2021/06/01 16:15:31;;;;;;;4.20;1.10;;;26.70;65.10;;;;;;4956368;28;20035;-76
2021/06/01 16:23:24;;;;;;;1.95;0.80;;;26.60;64.20;;;;;;4970829;28;20054;-76
2021/06/01 16:31:46;;;;;;;5.15;1.20;;;26.60;62.50;;;;;;4957953;28;20105;-76
2021/06/01 16:42:50;;;;;;;5.88;1.20;;;26.20;63.00;;;;;;4963679;28;20054;-76
2021/06/01 17:04:39;;;;;;;7.18;1.10;;;26.00;66.20;;;;;;4959711;28;20038;-76
2021/06/01 17:07:17;;;;;;;6.97;1.60;;;26.00;65.80;;;;;;4968639;28;20117;-76
2021/06/01 17:12:50;;;;;;;3.53;1.30;;;25.80;65.90;;;;;;4962292;28;20042;-76
2021/06/01 17:15:18;;;;;;;8.85;1.27;;;25.80;65.10;;;;;;4961910;28;20035;-76
2021/06/01 17:17:52;;;;;;;6.10;1.35;;;25.70;65.20;;;;;;4961791;28;20022;-76
2021/06/01 17:37:02;;;;;;;4.90;1.30;;;25.20;66.50;;;;;;4964703;28;20070;-76
2021/06/01 17:39:28;;;;;;;4.93;1.50;;;25.00;66.30;;;;;;4966578;28;20110;-76
2021/06/01 17:41:56;;;;;;;3.72;1.30;;;25.00;65.80;;;;;;4967899;28;20433;-76
2021/06/01 17:44:25;;;;;;;6.82;1.65;;;25.00;66.70;;;;;;4972148;28;20457;-76
2021/06/01 17:46:53;;;;;;;4.03;1.55;;;24.90;66.40;;;;;;4965616;28;20110;-76
2021/06/01 17:49:23;;;;;;;3.90;1.45;;;24.80;66.50;;;;;;4970778;28;20549;-76
2021/06/01 17:51:52;;;;;;;6.25;1.38;;;24.80;67.00;;;;;;4966686;28;20077;-76
2021/06/01 17:54:39;;;;;;;5.68;1.42;;;24.80;67.60;;;;;;4969564;28;20465;-76
2021/06/01 17:57:05;;;;;;;5.63;1.40;;;24.70;67.90;;;;;;4970902;28;20034;-76
2021/06/01 17:59:31;;;;;;;3.88;1.15;;;24.60;69.80;;;;;;4970602;28;20049;-76
2021/06/01 18:01:57;;;;;;;7.45;1.75;;;24.50;72.20;;;;;;4969333;28;20086;-76
2021/06/01 18:04:25;;;;;;;4.63;1.45;;;24.40;74.30;;;;;;4967094;28;20027;-76
2021/06/01 18:07:06;;;;;;;4.47;1.60;;;24.30;75.10;;;;;;4971980;28;20496;-76
2021/06/01 18:13:31;;;;;;;5.65;1.80;;;24.00;76.50;;;;;;4970845;28;20142;-76
2021/06/01 19:50:29;;;;;;;7.32;2.60;;;19.90;97.20;;;;;;4970760;28;20508;-75
2021/06/01 19:52:55;;;;;;;5.65;2.05;;;19.80;97.90;;;;;;4970318;28;20030;-75